createdAt,value
2022-09-23T00:01:13.562Z,1.03
2022-09-23T00:03:42.737Z,1.70
2022-09-23T00:06:12.405Z,1.27
2022-09-23T00:08:40.365Z,1.13
2022-09-23T00:11:15.887Z,1.10
2022-09-23T00:13:48.932Z,1.00
2022-09-23T00:16:28.471Z,0.93
2022-09-23T00:18:55.334Z,1.00
2022-09-23T00:21:25.314Z,0.80
2022-09-23T00:23:52.021Z,1.10
2022-09-23T00:26:21.619Z,0.80
2022-09-23T00:28:51.805Z,0.87
2022-09-23T00:31:24.268Z,1.00
2022-09-23T00:33:58.826Z,1.00
2022-09-23T00:36:26.519Z,0.90
2022-09-23T00:38:56.570Z,1.07
2022-09-23T00:41:23.713Z,0.70
2022-09-23T00:43:55.733Z,1.00
2022-09-23T00:46:38.041Z,0.93
2022-09-23T00:49:37.619Z,1.10
2022-09-23T00:52:13.096Z,1.00
2022-09-23T00:54:43.569Z,0.93
2022-09-23T00:57:13.286Z,0.90
2022-09-23T00:59:40.409Z,0.80
2022-09-23T01:02:07.570Z,1.03
2022-09-23T01:04:34.838Z,1.20
2022-09-23T01:07:01.444Z,0.90
2022-09-23T01:09:28.501Z,1.40
2022-09-23T01:12:12.909Z,0.93
2022-09-23T01:15:09.860Z,1.20
2022-09-23T01:18:11.394Z,0.73
2022-09-23T01:21:06.323Z,1.00
2022-09-23T01:23:54.594Z,1.20
2022-09-23T01:26:53.465Z,1.60
2022-09-23T01:29:47.313Z,1.00
2022-09-23T01:32:40.986Z,1.03
2022-09-23T01:35:26.315Z,1.00
2022-09-23T01:38:31.927Z,1.00
2022-09-23T01:41:14.200Z,1.10
2022-09-23T01:43:49.937Z,1.10
2022-09-23T01:46:31.430Z,0.97
2022-09-23T01:49:15.723Z,1.13
2022-09-23T01:51:48.914Z,1.00
2022-09-23T01:54:22.970Z,1.40
2022-09-23T01:57:01.392Z,1.17
2022-09-23T01:59:27.935Z,1.10
2022-09-23T02:02:01.836Z,1.37
2022-09-23T02:04:39.609Z,1.20
2022-09-23T02:07:29.475Z,1.27
2022-09-23T02:10:25.762Z,1.17
2022-09-23T02:12:58.052Z,1.13
2022-09-23T02:15:41.938Z,1.03
2022-09-23T02:18:16.846Z,1.23
2022-09-23T02:20:43.995Z,1.20
2022-09-23T02:23:21.013Z,1.00
2022-09-23T02:26:12.005Z,0.97
2022-09-23T02:29:16.869Z,1.00
2022-09-23T02:31:49.502Z,1.20
2022-09-23T02:34:33.984Z,1.60
2022-09-23T02:37:29.592Z,1.47
2022-09-23T02:40:00.245Z,1.43
2022-09-23T02:42:52.838Z,1.70
2022-09-23T02:45:19.767Z,1.37
2022-09-23T02:47:49.911Z,1.67
2022-09-23T02:50:19.177Z,1.10
2022-09-23T02:52:46.951Z,1.10
2022-09-23T02:55:17.258Z,1.30
2022-09-23T02:57:44.653Z,1.40
2022-09-23T03:00:12.453Z,1.27
2022-09-23T03:02:58.913Z,1.33
2022-09-23T03:05:32.169Z,1.30
2022-09-23T03:08:42.354Z,1.30
2022-09-23T03:11:13.079Z,1.03
2022-09-23T03:14:17.864Z,1.17
2022-09-23T03:17:06.984Z,1.23
2022-09-23T03:19:50.762Z,1.00
2022-09-23T03:22:35.604Z,1.33
2022-09-23T03:25:16.051Z,1.23
2022-09-23T03:27:44.141Z,1.20
2022-09-23T03:30:11.634Z,1.00
2022-09-23T03:32:39.499Z,1.40
2022-09-23T03:35:06.747Z,1.50
2022-09-23T03:37:54.070Z,1.37
2022-09-23T03:40:35.793Z,1.20
2022-09-23T03:43:04.532Z,1.60
2022-09-23T03:45:33.594Z,1.10
2022-09-23T03:48:00.733Z,1.30
2022-09-23T03:50:28.005Z,1.40
2022-09-23T03:52:54.659Z,1.67
2022-09-23T03:55:21.461Z,1.30
2022-09-23T03:57:48.755Z,1.80
2022-09-23T04:00:16.079Z,1.53
2022-09-23T04:02:43.056Z,1.30
2022-09-23T04:05:11.592Z,1.63
2022-09-23T04:07:38.579Z,1.47
2022-09-23T04:10:06.349Z,1.50
2022-09-23T04:12:33.013Z,1.30
2022-09-23T04:15:00.160Z,1.60
2022-09-23T04:17:26.830Z,1.40
2022-09-23T04:19:53.501Z,1.50
2022-09-23T04:22:20.145Z,1.53
2022-09-23T04:24:47.011Z,1.63
2022-09-23T04:27:13.658Z,1.70
2022-09-23T04:29:40.279Z,1.50
2022-09-23T04:32:06.862Z,1.60
2022-09-23T04:34:33.537Z,1.50
2022-09-23T04:37:00.142Z,1.67
2022-09-23T04:39:26.883Z,1.40
2022-09-23T04:41:53.487Z,1.50
2022-09-23T04:44:21.322Z,1.30
2022-09-23T04:46:48.395Z,1.40
2022-09-23T04:49:16.465Z,1.40
2022-09-23T04:51:43.760Z,1.40
2022-09-23T04:54:12.239Z,1.40
2022-09-23T04:56:39.911Z,1.30
2022-09-23T04:59:07.586Z,1.80
2022-09-23T05:01:36.359Z,1.60
2022-09-23T05:04:06.856Z,1.20
2022-09-23T05:06:35.004Z,1.80
2022-09-23T05:09:02.842Z,1.60
2022-09-23T05:11:31.384Z,1.70
2022-09-23T05:13:58.590Z,1.83
2022-09-23T05:16:26.220Z,1.63
2022-09-23T05:18:53.329Z,1.50
2022-09-23T05:21:22.791Z,1.70
2022-09-23T05:23:54.237Z,1.53
2022-09-23T05:26:25.834Z,1.40
2022-09-23T05:28:54.020Z,1.50
2022-09-23T05:31:26.399Z,1.67
2022-09-23T05:33:57.466Z,1.83
2022-09-23T05:36:26.250Z,1.87
2022-09-23T05:38:52.985Z,2.20
2022-09-23T05:41:23.247Z,2.30
2022-09-23T05:43:51.838Z,2.17
2022-09-23T05:46:30.028Z,2.83
2022-09-23T05:49:01.771Z,2.47
2022-09-23T05:51:31.162Z,2.30
2022-09-23T05:53:58.997Z,2.03
2022-09-23T05:56:27.902Z,2.00
2022-09-23T05:58:57.200Z,2.10
2022-09-23T06:01:27.709Z,1.90
2022-09-23T06:03:56.322Z,2.10
2022-09-23T06:06:31.886Z,2.00
2022-09-23T06:08:59.547Z,1.80
2022-09-23T06:11:26.891Z,1.93
2022-09-23T06:14:05.885Z,1.67
2022-09-23T06:16:37.919Z,1.63
2022-09-23T06:19:07.461Z,1.40
2022-09-23T06:21:36.115Z,1.43
2022-09-23T06:24:03.338Z,1.40
2022-09-23T06:26:33.646Z,1.30
2022-09-23T06:29:08.784Z,1.80
2022-09-23T06:31:35.927Z,1.50
2022-09-23T06:34:11.564Z,1.60
2022-09-23T06:36:44.356Z,1.40
2022-09-23T06:39:12.956Z,1.37
2022-09-23T06:41:39.850Z,1.60
2022-09-23T06:44:06.597Z,1.40
2022-09-23T06:46:33.583Z,1.60
2022-09-23T06:49:02.126Z,1.27
2022-09-23T06:51:28.712Z,1.50
2022-09-23T06:53:57.627Z,1.50
2022-09-23T06:56:24.770Z,1.77
2022-09-23T06:58:55.805Z,1.60
2022-09-23T07:01:23.304Z,1.40
2022-09-23T07:03:52.830Z,1.50
2022-09-23T07:06:19.994Z,1.40
2022-09-23T07:08:51.352Z,1.50
2022-09-23T07:11:22.414Z,1.37
2022-09-23T07:13:49.188Z,1.43
2022-09-23T07:16:18.816Z,1.20
2022-09-23T07:18:45.817Z,1.60
2022-09-23T07:21:24.159Z,1.40
2022-09-23T07:23:51.904Z,1.10
2022-09-23T07:26:22.932Z,1.50
2022-09-23T07:28:54.698Z,1.40
2022-09-23T07:31:33.452Z,1.30
2022-09-23T07:34:06.594Z,1.20
2022-09-23T07:36:33.308Z,1.20
2022-09-23T07:39:03.842Z,1.17
2022-09-23T07:41:32.230Z,1.13
2022-09-23T07:44:00.750Z,0.97
2022-09-23T07:46:33.086Z,1.30
2022-09-23T07:48:59.871Z,1.30
2022-09-23T07:51:35.526Z,1.40
2022-09-23T07:54:05.419Z,1.30
2022-09-23T07:56:32.091Z,1.33
2022-09-23T07:59:05.810Z,1.87
2022-09-23T08:01:44.709Z,1.33
2022-09-23T08:04:17.978Z,1.10
2022-09-23T08:06:51.360Z,1.40
2022-09-23T08:09:20.034Z,1.10
2022-09-23T08:11:46.928Z,1.40
2022-09-23T08:14:15.485Z,1.40
2022-09-23T08:16:42.563Z,1.40
2022-09-23T08:19:09.538Z,1.30
2022-09-23T08:21:37.651Z,1.40
2022-09-23T08:24:04.348Z,1.60
2022-09-23T08:26:32.637Z,1.10
2022-09-23T08:28:59.240Z,1.50
2022-09-23T08:31:26.066Z,1.37
2022-09-23T08:33:57.753Z,1.13
2022-09-23T08:36:25.448Z,1.37
2022-09-23T08:38:52.602Z,1.10
2022-09-23T08:41:47.757Z,1.40
2022-09-23T08:44:23.067Z,1.20
2022-09-23T08:47:04.938Z,1.07
2022-09-23T08:49:38.742Z,1.20
2022-09-23T08:52:29.536Z,1.10
2022-09-23T08:54:56.451Z,1.10
2022-09-23T08:57:32.707Z,1.30
2022-09-23T09:00:01.825Z,1.10
2022-09-23T09:02:29.680Z,1.20
2022-09-23T09:05:03.579Z,1.00
2022-09-23T09:07:37.445Z,1.10
2022-09-23T09:10:19.444Z,1.37
2022-09-23T09:12:49.886Z,1.10
2022-09-23T09:15:27.583Z,1.20
2022-09-23T09:18:04.429Z,1.20
2022-09-23T09:20:57.188Z,1.00
2022-09-23T09:23:49.106Z,1.00
2022-09-23T09:26:36.001Z,1.00
2022-09-23T09:29:34.414Z,1.20
2022-09-23T09:32:25.570Z,1.00
2022-09-23T09:35:05.326Z,1.10
2022-09-23T09:37:40.467Z,1.10
2022-09-23T09:40:12.250Z,0.97
2022-09-23T09:42:50.315Z,1.20
2022-09-23T09:45:28.385Z,0.97
2022-09-23T09:48:01.816Z,1.30
2022-09-23T09:51:18.836Z,1.30
2022-09-23T09:53:45.469Z,1.30
2022-09-23T09:56:16.486Z,1.10
2022-09-23T09:58:56.818Z,1.00
2022-09-23T10:01:27.443Z,1.20
2022-09-23T10:03:59.141Z,1.00
2022-09-23T10:06:29.060Z,1.07
2022-09-23T10:09:01.922Z,1.10
2022-09-23T10:11:32.574Z,1.20
2022-09-23T10:14:11.202Z,1.00
2022-09-23T10:16:38.086Z,0.80
2022-09-23T10:19:13.963Z,1.10
2022-09-23T10:21:42.911Z,0.90
2022-09-23T10:24:22.711Z,0.97
2022-09-23T10:26:58.134Z,0.87
2022-09-23T10:29:53.315Z,0.90
2022-09-23T10:32:27.764Z,1.00
2022-09-23T10:34:57.623Z,0.70
2022-09-23T10:37:32.884Z,0.90
2022-09-23T10:40:19.557Z,0.87
2022-09-23T10:43:45.810Z,0.87
2022-09-23T10:46:39.817Z,0.90
2022-09-23T10:49:27.708Z,0.80
2022-09-23T10:52:16.159Z,0.70
2022-09-23T10:55:08.597Z,0.83
2022-09-23T10:57:59.036Z,0.67
2022-09-23T11:00:57.923Z,0.97
2022-09-23T11:03:58.536Z,0.70
2022-09-23T11:06:43.112Z,0.60
2022-09-23T11:09:15.615Z,0.50
2022-09-23T11:12:11.022Z,0.53
2022-09-23T11:14:46.297Z,0.60
2022-09-23T11:17:33.073Z,0.70
2022-09-23T11:20:23.877Z,0.50
2022-09-23T11:22:59.237Z,0.60
2022-09-23T11:25:47.259Z,0.80
2022-09-23T11:28:20.037Z,0.70
2022-09-23T11:30:46.613Z,0.47
2022-09-23T11:33:46.639Z,0.50
2022-09-23T11:36:28.365Z,0.53
2022-09-23T11:39:00.954Z,0.70
2022-09-23T11:41:30.600Z,0.50
2022-09-23T11:44:21.223Z,0.47
2022-09-23T11:46:55.811Z,0.40
2022-09-23T11:49:43.246Z,0.40
2022-09-23T11:52:19.564Z,0.50
2022-09-23T11:54:51.914Z,0.60
2022-09-23T11:57:49.582Z,0.60
2022-09-23T12:00:30.203Z,0.47
2022-09-23T12:03:44.365Z,0.50
2022-09-23T12:06:19.155Z,0.47
2022-09-23T12:08:45.806Z,0.70
2022-09-23T12:11:15.572Z,0.40
2022-09-23T12:13:45.072Z,0.57
2022-09-23T12:16:37.567Z,0.50
2022-09-23T12:19:28.734Z,0.50
2022-09-23T12:22:25.661Z,0.80
2022-09-23T12:25:07.664Z,0.83
2022-09-23T12:27:45.605Z,0.73
2022-09-23T12:30:25.045Z,0.80
2022-09-23T12:32:51.888Z,0.60
2022-09-23T12:35:32.215Z,0.50
2022-09-23T12:38:01.440Z,0.50
2022-09-23T12:40:43.968Z,0.67
2022-09-23T12:44:18.065Z,0.40
2022-09-23T12:46:45.904Z,0.70
2022-09-23T12:49:28.830Z,0.53
2022-09-23T12:52:25.471Z,0.50
2022-09-23T12:54:56.496Z,0.50
2022-09-23T12:57:34.973Z,0.60
2022-09-23T13:00:13.025Z,0.60
2022-09-23T13:03:07.567Z,0.40
2022-09-23T13:06:03.666Z,0.43
2022-09-23T13:08:31.051Z,0.50
2022-09-23T13:11:02.991Z,0.60
2022-09-23T13:13:42.850Z,0.60
2022-09-23T13:16:26.456Z,0.50
2022-09-23T13:19:26.311Z,0.63
2022-09-23T13:22:09.446Z,0.40
2022-09-23T13:24:40.598Z,0.50
2022-09-23T13:27:43.386Z,0.60
2022-09-23T13:30:16.445Z,0.70
2022-09-23T13:33:16.460Z,0.70
2022-09-23T13:35:51.530Z,0.50
2022-09-23T13:38:26.118Z,0.50
2022-09-23T13:41:01.951Z,0.70
2022-09-23T13:43:32.479Z,0.60
2022-09-23T13:46:01.069Z,1.07
2022-09-23T13:48:28.831Z,0.70
2022-09-23T13:50:56.147Z,0.70
2022-09-23T13:53:28.139Z,0.70
2022-09-23T13:56:13.211Z,0.70
2022-09-23T13:58:40.473Z,1.10
2022-09-23T14:01:22.333Z,0.60
2022-09-23T14:03:49.116Z,0.70
2022-09-23T14:06:16.691Z,1.70
2022-09-23T14:08:48.327Z,1.13
2022-09-23T14:11:20.897Z,1.50
2022-09-23T14:13:51.062Z,0.70
2022-09-23T14:16:19.603Z,0.60
2022-09-23T14:18:49.626Z,0.67
2022-09-23T14:21:34.765Z,1.10
2022-09-23T14:24:25.165Z,1.00
2022-09-23T14:27:11.947Z,0.67
2022-09-23T14:29:41.358Z,0.80
2022-09-23T14:32:18.706Z,0.87
2022-09-23T14:34:53.035Z,0.70
2022-09-23T14:37:41.088Z,0.60
2022-09-23T14:40:32.066Z,0.73
2022-09-23T14:43:15.852Z,0.47
2022-09-23T14:45:50.519Z,0.80
2022-09-23T14:48:23.019Z,0.63
2022-09-23T14:50:52.759Z,0.50
2022-09-23T14:53:19.486Z,0.77
2022-09-23T14:55:52.916Z,0.60
2022-09-23T14:58:22.951Z,0.60
2022-09-23T15:01:00.723Z,0.60
2022-09-23T15:03:28.633Z,0.60
2022-09-23T15:06:08.777Z,0.60
2022-09-23T15:08:36.029Z,0.60
2022-09-23T15:11:08.074Z,0.60
2022-09-23T15:13:40.083Z,0.50
2022-09-23T15:16:07.479Z,0.60
2022-09-23T15:18:37.245Z,0.90
2022-09-23T15:21:16.206Z,0.77
2022-09-23T15:23:48.717Z,0.57
2022-09-23T15:26:38.185Z,0.90
2022-09-23T15:29:09.699Z,0.60
2022-09-23T15:31:37.381Z,0.70
2022-09-23T15:34:05.658Z,0.60
2022-09-23T15:36:32.757Z,0.80
2022-09-23T15:39:06.164Z,0.60
2022-09-23T15:41:35.776Z,0.80
2022-09-23T15:44:13.317Z,0.80
2022-09-23T15:46:46.029Z,0.57
2022-09-23T15:49:36.289Z,0.50
2022-09-23T15:52:05.114Z,0.80
2022-09-23T15:54:34.765Z,0.90
2022-09-23T15:57:01.457Z,0.73
2022-09-23T15:59:31.100Z,0.73
2022-09-23T16:02:03.273Z,0.73
2022-09-23T16:04:31.425Z,0.70
2022-09-23T16:06:59.135Z,0.70
2022-09-23T16:09:28.298Z,0.60
2022-09-23T16:11:55.094Z,1.10
2022-09-23T16:14:21.755Z,0.93
2022-09-23T16:16:49.621Z,0.80
2022-09-23T16:19:17.733Z,1.00
2022-09-23T16:21:44.861Z,0.90
2022-09-23T16:24:17.147Z,0.80
2022-09-23T16:26:46.603Z,1.03
2022-09-23T16:29:13.786Z,1.10
2022-09-23T16:31:40.786Z,1.37
2022-09-23T16:34:07.478Z,1.30
2022-09-23T16:36:43.383Z,1.60
2022-09-23T16:39:12.819Z,1.60
2022-09-23T16:41:40.341Z,1.53
2022-09-23T16:44:09.371Z,1.40
2022-09-23T16:46:36.566Z,1.10
2022-09-23T16:49:03.630Z,1.40
2022-09-23T16:51:38.997Z,1.40
2022-09-23T16:54:11.769Z,1.53
2022-09-23T16:56:45.315Z,1.27
2022-09-23T16:59:13.203Z,1.50
2022-09-23T17:01:58.772Z,1.20
2022-09-23T17:04:25.611Z,1.20
2022-09-23T17:06:53.185Z,1.10
2022-09-23T17:09:28.416Z,1.40
2022-09-23T17:12:25.978Z,1.40
2022-09-23T17:14:53.117Z,1.30
2022-09-23T17:17:19.845Z,1.30
2022-09-23T17:19:47.296Z,1.20
2022-09-23T17:22:14.343Z,1.50
2022-09-23T17:24:41.449Z,1.20
2022-09-23T17:27:08.063Z,1.03
2022-09-23T17:29:34.677Z,1.30
2022-09-23T17:32:01.595Z,1.00
2022-09-23T17:34:28.984Z,1.37
2022-09-23T17:36:55.733Z,1.20
2022-09-23T17:39:22.367Z,1.43
2022-09-23T17:41:49.243Z,1.20
2022-09-23T17:44:17.632Z,1.40
2022-09-23T17:46:44.276Z,1.37
2022-09-23T17:49:11.375Z,1.60
2022-09-23T17:51:37.967Z,1.30
2022-09-23T17:54:04.678Z,1.67
2022-09-23T17:56:31.477Z,1.60
2022-09-23T17:59:01.871Z,1.40
2022-09-23T18:01:29.418Z,1.40
2022-09-23T18:03:58.228Z,1.70
2022-09-23T18:06:27.698Z,1.60
2022-09-23T18:08:55.980Z,1.57
2022-09-23T18:11:27.850Z,1.90
2022-09-23T18:13:59.995Z,1.70
2022-09-23T18:16:35.064Z,1.50
2022-09-23T18:19:03.785Z,1.77
2022-09-23T18:21:33.515Z,2.00
2022-09-23T18:24:21.732Z,1.90
2022-09-23T18:26:49.426Z,2.33
2022-09-23T18:29:16.742Z,2.37
2022-09-23T18:31:45.184Z,2.10
2022-09-23T18:34:14.115Z,1.90
2022-09-23T18:36:41.048Z,2.47
2022-09-23T18:39:07.957Z,2.47
2022-09-23T18:41:35.554Z,2.53
2022-09-23T18:44:02.575Z,2.50
2022-09-23T18:46:30.310Z,2.57
2022-09-23T18:49:16.567Z,2.73
2022-09-23T18:51:52.521Z,2.90
2022-09-23T18:54:19.822Z,2.87
2022-09-23T18:56:46.826Z,2.87
2022-09-23T18:59:19.618Z,3.03
2022-09-23T19:01:50.112Z,3.00
2022-09-23T19:04:19.294Z,3.43
2022-09-23T19:06:46.502Z,2.70
2022-09-23T19:09:14.849Z,2.80
2022-09-23T19:11:41.752Z,3.00
2022-09-23T19:14:11.354Z,2.80
2022-09-23T19:16:39.539Z,2.93
2022-09-23T19:19:06.650Z,2.87
2022-09-23T19:21:33.510Z,3.67
2022-09-23T19:24:05.790Z,2.90
2022-09-23T19:26:36.095Z,3.00
2022-09-23T19:29:04.377Z,4.43
2022-09-23T19:31:33.903Z,5.80
2022-09-23T19:34:29.380Z,6.70
2022-09-23T19:36:57.466Z,5.93
2022-09-23T19:39:26.974Z,6.30
2022-09-23T19:41:56.062Z,5.97
2022-09-23T19:44:25.148Z,4.57
2022-09-23T19:46:56.313Z,4.40
2022-09-23T19:49:25.126Z,3.93
2022-09-23T19:51:56.051Z,4.50
2022-09-23T19:54:26.097Z,4.00
2022-09-23T19:56:52.740Z,4.20
2022-09-23T19:59:19.845Z,3.30
2022-09-23T20:01:48.260Z,3.13
2022-09-23T20:04:16.006Z,3.73
2022-09-23T20:06:43.286Z,5.00
2022-09-23T20:09:10.025Z,5.73
2022-09-23T20:11:36.901Z,8.43
2022-09-23T20:14:06.289Z,10.57
2022-09-23T20:16:36.868Z,11.43
2022-09-23T20:19:04.375Z,12.17
2022-09-23T20:21:31.532Z,12.57
2022-09-23T20:23:58.350Z,10.63
2022-09-23T20:26:43.468Z,10.27
2022-09-23T20:29:11.098Z,9.30
2022-09-23T20:31:41.489Z,9.30
2022-09-23T20:34:10.502Z,8.43
2022-09-23T20:36:37.828Z,7.23
2022-09-23T20:39:08.020Z,6.77
2022-09-23T20:41:37.587Z,6.10
2022-09-23T20:44:12.421Z,5.60
2022-09-23T20:46:48.225Z,5.17
2022-09-23T20:49:19.640Z,4.60
2022-09-23T20:51:50.512Z,5.10
2022-09-23T20:54:20.332Z,5.00
2022-09-23T20:56:47.663Z,5.00
2022-09-23T20:59:15.082Z,12.40
2022-09-23T21:01:41.877Z,5.70
2022-09-23T21:04:09.791Z,4.93
2022-09-23T21:06:37.597Z,5.07
2022-09-23T21:09:07.602Z,4.57
2022-09-23T21:11:34.355Z,4.83
2022-09-23T21:14:01.547Z,5.10
2022-09-23T21:16:28.661Z,5.17
2022-09-23T21:18:55.407Z,5.13
2022-09-23T21:21:22.543Z,4.90
2022-09-23T21:23:52.648Z,4.97
2022-09-23T21:26:24.742Z,4.77
2022-09-23T21:28:55.159Z,4.83
2022-09-23T21:31:25.585Z,4.73
2022-09-23T21:33:59.095Z,4.50
2022-09-23T21:36:28.254Z,4.30
2022-09-23T21:38:58.263Z,4.03
2022-09-23T21:41:25.391Z,3.93
2022-09-23T21:43:52.059Z,3.63
2022-09-23T21:46:20.666Z,4.03
2022-09-23T21:48:53.012Z,4.03
2022-09-23T21:51:25.729Z,4.63
2022-09-23T21:53:54.892Z,3.63
2022-09-23T21:56:22.866Z,3.97
2022-09-23T21:58:49.935Z,4.17
2022-09-23T22:01:22.677Z,3.90
2022-09-23T22:03:54.514Z,3.53
2022-09-23T22:06:23.671Z,3.77
2022-09-23T22:08:53.531Z,3.80
2022-09-23T22:11:41.190Z,4.00
2022-09-23T22:14:11.790Z,4.37
2022-09-23T22:16:42.552Z,4.00
2022-09-23T22:19:13.055Z,4.10
2022-09-23T22:21:41.734Z,3.50
2022-09-23T22:24:12.735Z,3.50
2022-09-23T22:26:45.747Z,4.13
2022-09-23T22:29:33.262Z,4.23
2022-09-23T22:32:20.343Z,3.77
2022-09-23T22:34:52.352Z,4.33
2022-09-23T22:37:28.289Z,3.50
2022-09-23T22:39:55.052Z,4.17
2022-09-23T22:42:22.441Z,3.97
2022-09-23T22:44:50.112Z,4.03
2022-09-23T22:47:20.496Z,4.10
2022-09-23T22:49:50.570Z,4.03
2022-09-23T22:52:23.691Z,4.30
2022-09-23T22:54:54.372Z,4.30
2022-09-23T22:57:20.973Z,4.13
2022-09-23T22:59:48.500Z,4.23
2022-09-23T23:02:20.843Z,4.53
2022-09-23T23:04:48.228Z,3.80
2022-09-23T23:07:23.458Z,3.60
2022-09-23T23:09:50.824Z,3.37
2022-09-23T23:12:20.960Z,3.33
2022-09-23T23:14:49.078Z,3.87
2022-09-23T23:17:19.264Z,3.73
2022-09-23T23:19:46.078Z,3.90
2022-09-23T23:22:12.816Z,3.60
2022-09-23T23:24:41.892Z,4.00
2022-09-23T23:27:08.470Z,3.50
2022-09-23T23:29:37.628Z,3.27
2022-09-23T23:32:05.203Z,3.50
2022-09-23T23:34:31.967Z,3.20
2022-09-23T23:36:58.619Z,3.70
2022-09-23T23:39:25.716Z,3.33
2022-09-23T23:41:57.068Z,3.30
2022-09-23T23:44:26.198Z,3.73
2022-09-23T23:46:54.264Z,3.37
2022-09-23T23:49:21.628Z,3.60
2022-09-23T23:51:51.026Z,3.37
2022-09-23T23:54:17.613Z,3.70
2022-09-23T23:56:44.321Z,3.60
2022-09-23T23:59:11.355Z,3.80
